sensor_id;sensor_type;location;lat;lon;timestamp;temperature;humidity
13251;DHT22;6692;50.710;7.180;2023-05-15T00:00:30;14.20;99.90
13251;DHT22;6692;50.710;7.180;2023-05-15T00:02:31;14.20;99.90
13251;DHT22;6692;50.710;7.180;2023-05-15T00:04:31;14.10;99.90
13251;DHT22;6692;50.710;7.180;2023-05-15T00:06:32;14.10;99.90
13251;DHT22;6692;50.710;7.180;2023-05-15T00:08:33;14.00;99.90
13251;DHT22;6692;50.710;7.180;2023-05-15T00:10:34;14.00;99.90
13251;DHT22;6692;50.710;7.180;2023-05-15T00:12:35;13.90;99.90
13251;DHT22;6692;50.710;7.180;2023-05-15T00:14:36;13.90;99.90
13251;DHT22;6692;50.710;7.180;2023-05-15T00:16:36;13.90;99.90
13251;DHT22;6692;50.710;7.180;2023-05-15T00:18:37;13.80;99.90
13251;DHT22;6692;50.710;7.180;2023-05-15T00:20:39;13.80;99.90
13251;DHT22;6692;50.710;7.180;2023-05-15T00:22:39;13.80;99.90
13251;DHT22;6692;50.710;7.180;2023-05-15T00:24:40;13.80;99.90
13251;DHT22;6692;50.710;7.180;2023-05-15T00:26:41;13.80;99.90
13251;DHT22;6692;50.710;7.180;2023-05-15T00:28:41;13.70;99.90
13251;DHT22;6692;50.710;7.180;2023-05-15T00:30:42;13.70;99.90
13251;DHT22;6692;50.710;7.180;2023-05-15T00:32:43;13.70;99.90
13251;DHT22;6692;50.710;7.180;2023-05-15T00:34:44;13.60;99.90
13251;DHT22;6692;50.710;7.180;2023-05-15T00:36:45;13.60;99.90
13251;DHT22;6692;50.710;7.180;2023-05-15T00:38:45;13.60;99.90
13251;DHT22;6692;50.710;7.180;2023-05-15T00:40:46;13.60;99.90
13251;DHT22;6692;50.710;7.180;2023-05-15T00:42:47;13.50;99.90
13251;DHT22;6692;50.710;7.180;2023-05-15T00:44:48;13.50;99.90
13251;DHT22;6692;50.710;7.180;2023-05-15T00:46:49;13.50;99.90
13251;DHT22;6692;50.710;7.180;2023-05-15T00:48:49;13.50;99.90
13251;DHT22;6692;50.710;7.180;2023-05-15T00:50:50;13.50;99.90
13251;DHT22;6692;50.710;7.180;2023-05-15T00:52:51;13.50;99.90
13251;DHT22;6692;50.710;7.180;2023-05-15T00:54:52;13.50;99.90
13251;DHT22;6692;50.710;7.180;2023-05-15T00:56:55;13.50;99.90
13251;DHT22;6692;50.710;7.180;2023-05-15T00:58:53;13.50;99.90
13251;DHT22;6692;50.710;7.180;2023-05-15T01:00:54;13.40;99.90
13251;DHT22;6692;50.710;7.180;2023-05-15T01:02:55;13.40;99.90
13251;DHT22;6692;50.710;7.180;2023-05-15T01:04:56;13.50;99.90
13251;DHT22;6692;50.710;7.180;2023-05-15T01:06:57;13.40;99.90
13251;DHT22;6692;50.710;7.180;2023-05-15T01:08:58;13.50;99.90
13251;DHT22;6692;50.710;7.180;2023-05-15T01:10:58;13.50;99.90
13251;DHT22;6692;50.710;7.180;2023-05-15T01:12:59;13.50;99.90
13251;DHT22;6692;50.710;7.180;2023-05-15T01:14:59;13.50;99.90
13251;DHT22;6692;50.710;7.180;2023-05-15T01:17:00;13.50;99.90
13251;DHT22;6692;50.710;7.180;2023-05-15T01:19:01;13.50;99.90
13251;DHT22;6692;50.710;7.180;2023-05-15T01:23:47;13.50;99.90
13251;DHT22;6692;50.710;7.180;2023-05-15T01:25:55;13.50;99.90
13251;DHT22;6692;50.710;7.180;2023-05-15T01:27:53;13.40;99.90
13251;DHT22;6692;50.710;7.180;2023-05-15T01:30:21;13.40;99.90
13251;DHT22;6692;50.710;7.180;2023-05-15T01:32:18;13.40;99.90
13251;DHT22;6692;50.710;7.180;2023-05-15T01:34:18;13.40;99.90
13251;DHT22;6692;50.710;7.180;2023-05-15T01:36:23;13.30;99.90
13251;DHT22;6692;50.710;7.180;2023-05-15T01:38:24;13.30;99.90
13251;DHT22;6692;50.710;7.180;2023-05-15T01:40:23;13.30;99.90
13251;DHT22;6692;50.710;7.180;2023-05-15T01:42:25;13.30;99.90
13251;DHT22;6692;50.710;7.180;2023-05-15T01:44:27;13.20;99.90
13251;DHT22;6692;50.710;7.180;2023-05-15T01:46:28;13.20;99.90
13251;DHT22;6692;50.710;7.180;2023-05-15T01:48:29;13.20;99.90
13251;DHT22;6692;50.710;7.180;2023-05-15T01:50:30;13.20;99.90
13251;DHT22;6692;50.710;7.180;2023-05-15T01:52:33;13.20;99.90
13251;DHT22;6692;50.710;7.180;2023-05-15T01:54:32;13.20;99.90
13251;DHT22;6692;50.710;7.180;2023-05-15T01:56:33;13.20;99.90
13251;DHT22;6692;50.710;7.180;2023-05-15T01:58:35;13.20;99.90
13251;DHT22;6692;50.710;7.180;2023-05-15T02:00:35;13.20;99.90
13251;DHT22;6692;50.710;7.180;2023-05-15T02:02:36;13.20;99.90
13251;DHT22;6692;50.710;7.180;2023-05-15T02:04:37;13.20;99.90
13251;DHT22;6692;50.710;7.180;2023-05-15T02:06:37;13.20;99.90
13251;DHT22;6692;50.710;7.180;2023-05-15T02:08:39;13.20;99.90
13251;DHT22;6692;50.710;7.180;2023-05-15T02:10:39;13.20;99.90
13251;DHT22;6692;50.710;7.180;2023-05-15T02:12:41;13.30;99.90
13251;DHT22;6692;50.710;7.180;2023-05-15T02:14:41;13.20;99.90
13251;DHT22;6692;50.710;7.180;2023-05-15T02:16:42;13.30;99.90
13251;DHT22;6692;50.710;7.180;2023-05-15T02:18:43;13.30;99.90
13251;DHT22;6692;50.710;7.180;2023-05-15T02:20:43;13.30;99.90
13251;DHT22;6692;50.710;7.180;2023-05-15T02:22:44;13.40;99.90
13251;DHT22;6692;50.710;7.180;2023-05-15T02:24:45;13.40;99.90
13251;DHT22;6692;50.710;7.180;2023-05-15T02:26:50;13.40;99.90
13251;DHT22;6692;50.710;7.180;2023-05-15T02:28:53;13.50;99.90
13251;DHT22;6692;50.710;7.180;2023-05-15T02:30:54;13.50;99.90
13251;DHT22;6692;50.710;7.180;2023-05-15T02:33:16;13.50;99.90
13251;DHT22;6692;50.710;7.180;2023-05-15T02:35:21;13.50;99.90
13251;DHT22;6692;50.710;7.180;2023-05-15T02:37:23;13.50;99.90
13251;DHT22;6692;50.710;7.180;2023-05-15T02:39:22;13.60;99.90
13251;DHT22;6692;50.710;7.180;2023-05-15T02:41:23;13.50;99.90
13251;DHT22;6692;50.710;7.180;2023-05-15T02:43:23;13.60;99.90
13251;DHT22;6692;50.710;7.180;2023-05-15T02:45:24;13.60;99.90
13251;DHT22;6692;50.710;7.180;2023-05-15T02:47:25;13.60;99.90
13251;DHT22;6692;50.710;7.180;2023-05-15T02:49:25;13.70;99.90
13251;DHT22;6692;50.710;7.180;2023-05-15T02:51:26;13.60;99.90
13251;DHT22;6692;50.710;7.180;2023-05-15T02:53:27;13.70;99.90
13251;DHT22;6692;50.710;7.180;2023-05-15T02:55:27;13.70;99.90
13251;DHT22;6692;50.710;7.180;2023-05-15T02:57:29;13.80;99.90
13251;DHT22;6692;50.710;7.180;2023-05-15T02:59:29;13.80;99.90
13251;DHT22;6692;50.710;7.180;2023-05-15T03:01:30;13.80;99.90
13251;DHT22;6692;50.710;7.180;2023-05-15T03:03:31;13.80;99.90
13251;DHT22;6692;50.710;7.180;2023-05-15T03:05:31;13.90;99.90
13251;DHT22;6692;50.710;7.180;2023-05-15T03:07:32;13.90;99.90
13251;DHT22;6692;50.710;7.180;2023-05-15T03:09:33;14.00;99.90
13251;DHT22;6692;50.710;7.180;2023-05-15T03:11:34;14.00;99.90
13251;DHT22;6692;50.710;7.180;2023-05-15T03:13:35;14.00;99.90
13251;DHT22;6692;50.710;7.180;2023-05-15T03:15:35;14.00;99.90
13251;DHT22;6692;50.710;7.180;2023-05-15T03:17:36;14.10;99.90
13251;DHT22;6692;50.710;7.180;2023-05-15T03:19:37;14.10;99.90
13251;DHT22;6692;50.710;7.180;2023-05-15T03:21:38;14.10;99.90
13251;DHT22;6692;50.710;7.180;2023-05-15T03:23:39;14.10;99.90
13251;DHT22;6692;50.710;7.180;2023-05-15T03:25:39;14.10;99.90
13251;DHT22;6692;50.710;7.180;2023-05-15T03:27:40;14.20;99.90
13251;DHT22;6692;50.710;7.180;2023-05-15T03:29:42;14.20;99.90
13251;DHT22;6692;50.710;7.180;2023-05-15T03:31:42;14.20;99.90
13251;DHT22;6692;50.710;7.180;2023-05-15T03:33:43;14.20;99.90
13251;DHT22;6692;50.710;7.180;2023-05-15T03:35:44;14.20;99.90
13251;DHT22;6692;50.710;7.180;2023-05-15T03:37:44;14.20;99.90
13251;DHT22;6692;50.710;7.180;2023-05-15T03:39:45;14.20;99.90
13251;DHT22;6692;50.710;7.180;2023-05-15T03:41:46;14.30;99.90
13251;DHT22;6692;50.710;7.180;2023-05-15T03:43:46;14.30;99.90
13251;DHT22;6692;50.710;7.180;2023-05-15T03:45:47;14.30;99.90
13251;DHT22;6692;50.710;7.180;2023-05-15T03:47:47;14.30;99.90
13251;DHT22;6692;50.710;7.180;2023-05-15T03:49:48;14.40;99.90
13251;DHT22;6692;50.710;7.180;2023-05-15T03:51:49;14.40;99.90
13251;DHT22;6692;50.710;7.180;2023-05-15T03:53:50;14.40;99.90
13251;DHT22;6692;50.710;7.180;2023-05-15T03:55:50;14.50;99.90
13251;DHT22;6692;50.710;7.180;2023-05-15T03:57:51;14.60;99.90
13251;DHT22;6692;50.710;7.180;2023-05-15T03:59:51;14.60;99.90
13251;DHT22;6692;50.710;7.180;2023-05-15T04:01:52;14.60;99.90
13251;DHT22;6692;50.710;7.180;2023-05-15T04:03:53;14.60;99.90
13251;DHT22;6692;50.710;7.180;2023-05-15T04:05:53;14.60;99.90
13251;DHT22;6692;50.710;7.180;2023-05-15T04:07:54;14.70;99.90
13251;DHT22;6692;50.710;7.180;2023-05-15T04:09:55;14.70;99.90
13251;DHT22;6692;50.710;7.180;2023-05-15T04:11:55;14.70;99.90
13251;DHT22;6692;50.710;7.180;2023-05-15T04:13:56;14.70;99.90
13251;DHT22;6692;50.710;7.180;2023-05-15T04:15:57;14.80;99.90
13251;DHT22;6692;50.710;7.180;2023-05-15T04:17:58;14.80;99.90
13251;DHT22;6692;50.710;7.180;2023-05-15T04:19:59;14.80;99.90
13251;DHT22;6692;50.710;7.180;2023-05-15T04:22:00;14.80;99.90
13251;DHT22;6692;50.710;7.180;2023-05-15T04:24:01;14.80;99.90
13251;DHT22;6692;50.710;7.180;2023-05-15T04:26:01;14.90;99.90
13251;DHT22;6692;50.710;7.180;2023-05-15T04:28:02;14.90;99.90
13251;DHT22;6692;50.710;7.180;2023-05-15T04:30:04;14.90;99.90
13251;DHT22;6692;50.710;7.180;2023-05-15T04:32:05;14.90;99.90
13251;DHT22;6692;50.710;7.180;2023-05-15T04:34:05;14.90;99.90
13251;DHT22;6692;50.710;7.180;2023-05-15T04:36:07;14.90;99.90
13251;DHT22;6692;50.710;7.180;2023-05-15T04:38:08;14.90;99.90
13251;DHT22;6692;50.710;7.180;2023-05-15T04:40:08;14.90;99.90
13251;DHT22;6692;50.710;7.180;2023-05-15T04:42:09;14.80;99.90
13251;DHT22;6692;50.710;7.180;2023-05-15T04:44:10;14.80;99.90
13251;DHT22;6692;50.710;7.180;2023-05-15T04:46:11;14.80;99.90
13251;DHT22;6692;50.710;7.180;2023-05-15T04:48:12;14.80;99.90
13251;DHT22;6692;50.710;7.180;2023-05-15T04:50:13;14.80;99.90
13251;DHT22;6692;50.710;7.180;2023-05-15T04:52:13;14.80;99.90
13251;DHT22;6692;50.710;7.180;2023-05-15T04:54:14;14.90;99.90
13251;DHT22;6692;50.710;7.180;2023-05-15T04:56:15;14.90;99.90
13251;DHT22;6692;50.710;7.180;2023-05-15T04:58:16;14.90;99.90
13251;DHT22;6692;50.710;7.180;2023-05-15T05:00:17;14.90;99.90
13251;DHT22;6692;50.710;7.180;2023-05-15T05:02:19;14.80;99.90
13251;DHT22;6692;50.710;7.180;2023-05-15T05:04:20;14.80;99.90
13251;DHT22;6692;50.710;7.180;2023-05-15T05:06:21;14.80;99.90
13251;DHT22;6692;50.710;7.180;2023-05-15T05:08:22;14.80;99.90
13251;DHT22;6692;50.710;7.180;2023-05-15T05:10:22;14.80;99.90
13251;DHT22;6692;50.710;7.180;2023-05-15T05:12:23;14.80;99.90
13251;DHT22;6692;50.710;7.180;2023-05-15T05:14:25;14.80;99.90
13251;DHT22;6692;50.710;7.180;2023-05-15T05:16:24;14.80;99.90
13251;DHT22;6692;50.710;7.180;2023-05-15T05:18:25;14.80;99.90
13251;DHT22;6692;50.710;7.180;2023-05-15T05:20:26;14.80;99.90
13251;DHT22;6692;50.710;7.180;2023-05-15T05:22:26;14.80;99.90
13251;DHT22;6692;50.710;7.180;2023-05-15T05:24:27;14.80;99.90
13251;DHT22;6692;50.710;7.180;2023-05-15T05:26:28;14.80;99.90
13251;DHT22;6692;50.710;7.180;2023-05-15T05:28:28;14.80;99.90
13251;DHT22;6692;50.710;7.180;2023-05-15T05:30:30;14.80;99.90
13251;DHT22;6692;50.710;7.180;2023-05-15T05:32:30;14.80;99.90
13251;DHT22;6692;50.710;7.180;2023-05-15T05:34:31;14.80;99.90
13251;DHT22;6692;50.710;7.180;2023-05-15T05:36:32;14.80;99.90
13251;DHT22;6692;50.710;7.180;2023-05-15T05:38:34;14.80;99.90
13251;DHT22;6692;50.710;7.180;2023-05-15T05:40:34;14.80;99.90
13251;DHT22;6692;50.710;7.180;2023-05-15T05:42:34;14.80;99.90
13251;DHT22;6692;50.710;7.180;2023-05-15T05:44:36;14.80;99.90
13251;DHT22;6692;50.710;7.180;2023-05-15T05:46:36;14.70;99.90
13251;DHT22;6692;50.710;7.180;2023-05-15T05:48:37;14.80;99.90
13251;DHT22;6692;50.710;7.180;2023-05-15T05:50:38;14.70;99.90
13251;DHT22;6692;50.710;7.180;2023-05-15T05:52:38;14.80;99.90
13251;DHT22;6692;50.710;7.180;2023-05-15T05:54:39;14.70;99.90
13251;DHT22;6692;50.710;7.180;2023-05-15T05:56:41;14.70;99.90
13251;DHT22;6692;50.710;7.180;2023-05-15T05:58:41;14.70;99.90
13251;DHT22;6692;50.710;7.180;2023-05-15T06:00:42;14.60;99.90
13251;DHT22;6692;50.710;7.180;2023-05-15T06:02:42;14.60;99.90
13251;DHT22;6692;50.710;7.180;2023-05-15T06:04:43;14.50;99.90
13251;DHT22;6692;50.710;7.180;2023-05-15T06:06:44;14.50;99.90
13251;DHT22;6692;50.710;7.180;2023-05-15T06:08:45;14.40;99.90
13251;DHT22;6692;50.710;7.180;2023-05-15T06:10:46;14.40;99.90
13251;DHT22;6692;50.710;7.180;2023-05-15T06:12:47;14.40;99.90
13251;DHT22;6692;50.710;7.180;2023-05-15T06:14:48;14.40;99.90
13251;DHT22;6692;50.710;7.180;2023-05-15T06:16:49;14.40;99.90
13251;DHT22;6692;50.710;7.180;2023-05-15T06:18:49;14.40;99.90
13251;DHT22;6692;50.710;7.180;2023-05-15T06:20:51;14.40;99.90
13251;DHT22;6692;50.710;7.180;2023-05-15T06:22:51;14.40;99.90
13251;DHT22;6692;50.710;7.180;2023-05-15T06:24:53;14.30;99.90
13251;DHT22;6692;50.710;7.180;2023-05-15T06:26:53;14.30;99.90
13251;DHT22;6692;50.710;7.180;2023-05-15T06:28:55;14.40;99.90
13251;DHT22;6692;50.710;7.180;2023-05-15T06:30:55;14.40;99.90
13251;DHT22;6692;50.710;7.180;2023-05-15T06:32:56;14.40;99.90
13251;DHT22;6692;50.710;7.180;2023-05-15T06:34:57;14.50;99.90
13251;DHT22;6692;50.710;7.180;2023-05-15T06:36:58;14.50;99.90
13251;DHT22;6692;50.710;7.180;2023-05-15T06:38:59;14.50;99.90
13251;DHT22;6692;50.710;7.180;2023-05-15T06:41:00;14.50;99.90
13251;DHT22;6692;50.710;7.180;2023-05-15T06:43:01;14.60;99.90
13251;DHT22;6692;50.710;7.180;2023-05-15T06:45:02;14.60;99.90
13251;DHT22;6692;50.710;7.180;2023-05-15T06:47:03;14.60;99.90
13251;DHT22;6692;50.710;7.180;2023-05-15T06:49:04;14.60;99.90
13251;DHT22;6692;50.710;7.180;2023-05-15T06:51:05;14.60;99.90
13251;DHT22;6692;50.710;7.180;2023-05-15T06:53:06;14.60;99.90
13251;DHT22;6692;50.710;7.180;2023-05-15T06:55:07;14.70;99.90
13251;DHT22;6692;50.710;7.180;2023-05-15T06:57:08;14.70;99.90
13251;DHT22;6692;50.710;7.180;2023-05-15T06:59:08;14.60;99.90
13251;DHT22;6692;50.710;7.180;2023-05-15T07:01:09;14.60;99.90
13251;DHT22;6692;50.710;7.180;2023-05-15T07:03:10;14.60;99.90
13251;DHT22;6692;50.710;7.180;2023-05-15T07:05:10;14.60;99.90
13251;DHT22;6692;50.710;7.180;2023-05-15T07:07:11;14.50;99.90
13251;DHT22;6692;50.710;7.180;2023-05-15T07:09:12;14.50;99.90
13251;DHT22;6692;50.710;7.180;2023-05-15T07:11:12;14.50;99.90
13251;DHT22;6692;50.710;7.180;2023-05-15T07:13:15;14.50;99.90
13251;DHT22;6692;50.710;7.180;2023-05-15T07:15:15;14.50;99.90
13251;DHT22;6692;50.710;7.180;2023-05-15T07:17:16;14.50;99.90
13251;DHT22;6692;50.710;7.180;2023-05-15T07:19:18;14.40;99.90
13251;DHT22;6692;50.710;7.180;2023-05-15T07:21:18;14.40;99.90
13251;DHT22;6692;50.710;7.180;2023-05-15T07:23:19;14.40;99.90
13251;DHT22;6692;50.710;7.180;2023-05-15T07:25:20;14.40;99.90
13251;DHT22;6692;50.710;7.180;2023-05-15T07:27:21;14.30;99.90
13251;DHT22;6692;50.710;7.180;2023-05-15T07:29:22;14.30;99.90
13251;DHT22;6692;50.710;7.180;2023-05-15T07:31:22;14.30;99.90
13251;DHT22;6692;50.710;7.180;2023-05-15T07:33:23;14.30;99.90
13251;DHT22;6692;50.710;7.180;2023-05-15T07:35:24;14.30;99.90
13251;DHT22;6692;50.710;7.180;2023-05-15T07:37:25;14.30;99.90
13251;DHT22;6692;50.710;7.180;2023-05-15T07:39:26;14.30;99.90
13251;DHT22;6692;50.710;7.180;2023-05-15T07:41:27;14.30;99.90
13251;DHT22;6692;50.710;7.180;2023-05-15T07:43:27;14.30;99.90
13251;DHT22;6692;50.710;7.180;2023-05-15T07:45:28;14.40;99.90
13251;DHT22;6692;50.710;7.180;2023-05-15T07:47:29;14.40;99.90
13251;DHT22;6692;50.710;7.180;2023-05-15T07:49:29;14.40;99.90
13251;DHT22;6692;50.710;7.180;2023-05-15T07:51:30;14.50;99.90
13251;DHT22;6692;50.710;7.180;2023-05-15T07:53:31;14.50;99.90
13251;DHT22;6692;50.710;7.180;2023-05-15T07:55:31;14.60;99.90
13251;DHT22;6692;50.710;7.180;2023-05-15T07:57:33;14.80;99.90
13251;DHT22;6692;50.710;7.180;2023-05-15T07:59:34;14.80;99.90
13251;DHT22;6692;50.710;7.180;2023-05-15T08:01:34;14.80;99.90
13251;DHT22;6692;50.710;7.180;2023-05-15T08:03:35;14.90;99.90
13251;DHT22;6692;50.710;7.180;2023-05-15T08:05:35;14.90;99.90
13251;DHT22;6692;50.710;7.180;2023-05-15T08:07:36;14.90;99.90
13251;DHT22;6692;50.710;7.180;2023-05-15T08:09:37;15.00;99.90
13251;DHT22;6692;50.710;7.180;2023-05-15T08:11:37;15.10;99.90
13251;DHT22;6692;50.710;7.180;2023-05-15T08:13:38;15.00;99.90
13251;DHT22;6692;50.710;7.180;2023-05-15T08:15:39;14.90;99.90
13251;DHT22;6692;50.710;7.180;2023-05-15T08:17:39;14.90;99.90
13251;DHT22;6692;50.710;7.180;2023-05-15T08:19:40;14.90;99.90
13251;DHT22;6692;50.710;7.180;2023-05-15T08:21:41;14.90;99.90
13251;DHT22;6692;50.710;7.180;2023-05-15T08:23:41;14.80;99.90
13251;DHT22;6692;50.710;7.180;2023-05-15T08:25:42;14.80;99.90
13251;DHT22;6692;50.710;7.180;2023-05-15T08:27:43;14.80;99.90
13251;DHT22;6692;50.710;7.180;2023-05-15T08:29:44;14.90;99.90
13251;DHT22;6692;50.710;7.180;2023-05-15T08:31:45;14.90;99.90
13251;DHT22;6692;50.710;7.180;2023-05-15T08:33:45;14.80;99.90
13251;DHT22;6692;50.710;7.180;2023-05-15T08:35:46;14.80;99.90
13251;DHT22;6692;50.710;7.180;2023-05-15T08:37:47;14.90;99.90
13251;DHT22;6692;50.710;7.180;2023-05-15T08:39:47;14.80;99.90
13251;DHT22;6692;50.710;7.180;2023-05-15T08:42:25;14.80;99.90
13251;DHT22;6692;50.710;7.180;2023-05-15T08:44:07;14.80;99.90
13251;DHT22;6692;50.710;7.180;2023-05-15T08:46:08;14.80;99.90
13251;DHT22;6692;50.710;7.180;2023-05-15T08:48:10;14.70;99.90
13251;DHT22;6692;50.710;7.180;2023-05-15T08:50:11;14.70;99.90
13251;DHT22;6692;50.710;7.180;2023-05-15T08:52:12;14.70;99.90
13251;DHT22;6692;50.710;7.180;2023-05-15T08:54:13;14.70;99.90
13251;DHT22;6692;50.710;7.180;2023-05-15T08:56:13;14.70;99.90
13251;DHT22;6692;50.710;7.180;2023-05-15T08:58:14;14.70;99.90
13251;DHT22;6692;50.710;7.180;2023-05-15T09:00:15;14.70;99.90
13251;DHT22;6692;50.710;7.180;2023-05-15T09:02:17;14.70;99.90
13251;DHT22;6692;50.710;7.180;2023-05-15T09:04:17;14.80;99.90
13251;DHT22;6692;50.710;7.180;2023-05-15T09:06:19;15.00;99.90
13251;DHT22;6692;50.710;7.180;2023-05-15T09:08:20;15.00;99.90
13251;DHT22;6692;50.710;7.180;2023-05-15T09:10:22;15.20;99.90
13251;DHT22;6692;50.710;7.180;2023-05-15T09:12:24;15.20;99.90
13251;DHT22;6692;50.710;7.180;2023-05-15T09:14:25;15.20;99.90
13251;DHT22;6692;50.710;7.180;2023-05-15T09:16:26;15.20;99.90
13251;DHT22;6692;50.710;7.180;2023-05-15T09:18:27;15.20;99.90
13251;DHT22;6692;50.710;7.180;2023-05-15T09:20:30;15.30;99.90
13251;DHT22;6692;50.710;7.180;2023-05-15T09:22:33;15.40;99.90
13251;DHT22;6692;50.710;7.180;2023-05-15T09:24:36;15.40;99.90
13251;DHT22;6692;50.710;7.180;2023-05-15T09:26:34;15.40;99.90
13251;DHT22;6692;50.710;7.180;2023-05-15T09:28:34;15.40;99.90
13251;DHT22;6692;50.710;7.180;2023-05-15T09:30:37;15.40;99.90
13251;DHT22;6692;50.710;7.180;2023-05-15T09:32:37;15.50;99.90
13251;DHT22;6692;50.710;7.180;2023-05-15T09:34:39;15.50;99.90
13251;DHT22;6692;50.710;7.180;2023-05-15T09:36:41;15.60;99.90
13251;DHT22;6692;50.710;7.180;2023-05-15T09:38:42;15.70;99.90
13251;DHT22;6692;50.710;7.180;2023-05-15T09:40:43;15.60;99.90
13251;DHT22;6692;50.710;7.180;2023-05-15T09:42:50;15.70;99.90
13251;DHT22;6692;50.710;7.180;2023-05-15T09:44:44;15.80;99.90
13251;DHT22;6692;50.710;7.180;2023-05-15T09:46:45;15.90;99.90
13251;DHT22;6692;50.710;7.180;2023-05-15T09:48:46;15.90;99.90
13251;DHT22;6692;50.710;7.180;2023-05-15T09:50:46;16.00;99.90
13251;DHT22;6692;50.710;7.180;2023-05-15T09:52:47;16.30;99.90
13251;DHT22;6692;50.710;7.180;2023-05-15T09:54:48;16.40;99.90
13251;DHT22;6692;50.710;7.180;2023-05-15T09:56:48;16.60;99.90
13251;DHT22;6692;50.710;7.180;2023-05-15T09:58:52;16.80;99.90
13251;DHT22;6692;50.710;7.180;2023-05-15T10:00:51;17.00;99.90
13251;DHT22;6692;50.710;7.180;2023-05-15T10:02:53;17.20;99.90
13251;DHT22;6692;50.710;7.180;2023-05-15T10:04:55;17.20;99.90
13251;DHT22;6692;50.710;7.180;2023-05-15T10:06:55;17.20;99.90
13251;DHT22;6692;50.710;7.180;2023-05-15T10:08:56;17.30;99.90
13251;DHT22;6692;50.710;7.180;2023-05-15T10:10:58;17.20;99.90
13251;DHT22;6692;50.710;7.180;2023-05-15T10:12:59;17.20;99.90
13251;DHT22;6692;50.710;7.180;2023-05-15T10:14:58;17.20;99.90
13251;DHT22;6692;50.710;7.180;2023-05-15T10:16:59;17.10;99.90
13251;DHT22;6692;50.710;7.180;2023-05-15T10:19:02;17.10;99.90
13251;DHT22;6692;50.710;7.180;2023-05-15T10:21:03;17.20;99.90
13251;DHT22;6692;50.710;7.180;2023-05-15T10:23:04;17.20;99.90
13251;DHT22;6692;50.710;7.180;2023-05-15T10:25:12;17.20;99.90
13251;DHT22;6692;50.710;7.180;2023-05-15T10:27:09;17.20;99.90
13251;DHT22;6692;50.710;7.180;2023-05-15T10:29:11;17.20;99.90
13251;DHT22;6692;50.710;7.180;2023-05-15T10:31:11;17.20;99.90
13251;DHT22;6692;50.710;7.180;2023-05-15T10:33:12;17.20;99.90
13251;DHT22;6692;50.710;7.180;2023-05-15T10:35:13;17.10;99.90
13251;DHT22;6692;50.710;7.180;2023-05-15T10:37:13;17.20;99.90
13251;DHT22;6692;50.710;7.180;2023-05-15T10:39:14;17.20;99.90
13251;DHT22;6692;50.710;7.180;2023-05-15T10:41:15;17.30;99.90
13251;DHT22;6692;50.710;7.180;2023-05-15T10:43:15;17.30;99.90
13251;DHT22;6692;50.710;7.180;2023-05-15T10:45:16;17.40;99.90
13251;DHT22;6692;50.710;7.180;2023-05-15T10:47:17;17.40;99.90
13251;DHT22;6692;50.710;7.180;2023-05-15T10:49:17;17.40;99.90
13251;DHT22;6692;50.710;7.180;2023-05-15T10:51:23;17.40;99.90
13251;DHT22;6692;50.710;7.180;2023-05-15T10:53:19;17.30;99.90
13251;DHT22;6692;50.710;7.180;2023-05-15T10:55:21;17.30;99.90
13251;DHT22;6692;50.710;7.180;2023-05-15T10:57:21;17.20;99.90
13251;DHT22;6692;50.710;7.180;2023-05-15T10:59:29;17.20;99.90
13251;DHT22;6692;50.710;7.180;2023-05-15T11:01:23;17.20;99.90
13251;DHT22;6692;50.710;7.180;2023-05-15T11:03:35;17.20;99.90
13251;DHT22;6692;50.710;7.180;2023-05-15T11:10:33;17.10;99.90
13251;DHT22;6692;50.710;7.180;2023-05-15T11:12:08;17.10;99.90
13251;DHT22;6692;50.710;7.180;2023-05-15T11:14:11;17.20;99.90
13251;DHT22;6692;50.710;7.180;2023-05-15T11:16:11;17.20;99.90
13251;DHT22;6692;50.710;7.180;2023-05-15T11:18:12;17.30;99.90
13251;DHT22;6692;50.710;7.180;2023-05-15T11:20:13;17.40;99.90
13251;DHT22;6692;50.710;7.180;2023-05-15T11:22:25;17.40;99.90
13251;DHT22;6692;50.710;7.180;2023-05-15T11:24:29;17.40;99.90
13251;DHT22;6692;50.710;7.180;2023-05-15T11:26:31;17.50;99.90
13251;DHT22;6692;50.710;7.180;2023-05-15T11:28:39;17.60;99.90
13251;DHT22;6692;50.710;7.180;2023-05-15T11:30:37;17.50;99.90
13251;DHT22;6692;50.710;7.180;2023-05-15T11:32:42;17.60;99.90
13251;DHT22;6692;50.710;7.180;2023-05-15T11:34:43;17.80;99.90
13251;DHT22;6692;50.710;7.180;2023-05-15T11:36:44;17.90;99.90
13251;DHT22;6692;50.710;7.180;2023-05-15T11:38:45;17.90;99.90
13251;DHT22;6692;50.710;7.180;2023-05-15T11:40:50;18.00;99.90
13251;DHT22;6692;50.710;7.180;2023-05-15T11:42:58;18.10;99.90
13251;DHT22;6692;50.710;7.180;2023-05-15T11:44:59;18.30;99.90
13251;DHT22;6692;50.710;7.180;2023-05-15T11:46:59;18.20;99.90
13251;DHT22;6692;50.710;7.180;2023-05-15T11:49:00;18.40;99.90
13251;DHT22;6692;50.710;7.180;2023-05-15T11:51:01;18.50;99.90
13251;DHT22;6692;50.710;7.180;2023-05-15T11:53:03;18.60;99.90
13251;DHT22;6692;50.710;7.180;2023-05-15T11:55:04;18.60;99.90
13251;DHT22;6692;50.710;7.180;2023-05-15T11:57:06;18.60;99.90
13251;DHT22;6692;50.710;7.180;2023-05-15T11:59:06;18.60;99.90
13251;DHT22;6692;50.710;7.180;2023-05-15T12:01:08;18.60;99.90
13251;DHT22;6692;50.710;7.180;2023-05-15T12:03:13;18.60;99.90
13251;DHT22;6692;50.710;7.180;2023-05-15T12:05:12;18.60;99.90
13251;DHT22;6692;50.710;7.180;2023-05-15T12:07:12;18.50;99.90
13251;DHT22;6692;50.710;7.180;2023-05-15T12:09:13;18.60;99.90
13251;DHT22;6692;50.710;7.180;2023-05-15T12:11:14;18.60;99.90
13251;DHT22;6692;50.710;7.180;2023-05-15T12:13:16;18.70;99.90
13251;DHT22;6692;50.710;7.180;2023-05-15T12:15:16;18.70;99.90
13251;DHT22;6692;50.710;7.180;2023-05-15T12:17:16;18.70;99.90
13251;DHT22;6692;50.710;7.180;2023-05-15T12:19:17;18.80;99.90
13251;DHT22;6692;50.710;7.180;2023-05-15T12:21:18;18.80;99.90
13251;DHT22;6692;50.710;7.180;2023-05-15T12:23:20;18.80;99.90
13251;DHT22;6692;50.710;7.180;2023-05-15T12:25:20;18.90;99.90
13251;DHT22;6692;50.710;7.180;2023-05-15T12:27:21;19.00;99.90
13251;DHT22;6692;50.710;7.180;2023-05-15T12:29:21;19.00;99.90
13251;DHT22;6692;50.710;7.180;2023-05-15T12:31:22;19.10;99.90
13251;DHT22;6692;50.710;7.180;2023-05-15T12:33:23;19.30;99.90
13251;DHT22;6692;50.710;7.180;2023-05-15T12:35:23;19.70;99.90
13251;DHT22;6692;50.710;7.180;2023-05-15T12:37:24;20.00;99.90
13251;DHT22;6692;50.710;7.180;2023-05-15T12:39:25;20.40;99.90
13251;DHT22;6692;50.710;7.180;2023-05-15T12:41:26;21.30;98.60
13251;DHT22;6692;50.710;7.180;2023-05-15T12:43:27;21.30;98.60
13251;DHT22;6692;50.710;7.180;2023-05-15T12:45:28;21.70;98.10
13251;DHT22;6692;50.710;7.180;2023-05-15T12:47:28;22.20;98.80
13251;DHT22;6692;50.710;7.180;2023-05-15T12:49:29;22.70;99.90
13251;DHT22;6692;50.710;7.180;2023-05-15T12:51:30;23.20;95.90
13251;DHT22;6692;50.710;7.180;2023-05-15T12:53:31;23.70;91.70
13251;DHT22;6692;50.710;7.180;2023-05-15T12:55:32;23.70;91.20
13251;DHT22;6692;50.710;7.180;2023-05-15T12:57:32;23.80;91.40
13251;DHT22;6692;50.710;7.180;2023-05-15T12:59:33;24.20;95.00
13251;DHT22;6692;50.710;7.180;2023-05-15T13:01:34;24.50;95.40
13251;DHT22;6692;50.710;7.180;2023-05-15T13:03:34;24.70;91.30